Time;durP1;ratioP1;P1;durP2;ratioP2;P2;SDS_P1;SDS_P2;PMS_P1;PMS_P2;Temp;Humidity;BMP_temperature;BMP_pressure;BME280_temperature;BME280_humidity;BME280_pressure;Samples;Min_cycle;Max_cycle;Signal;HPM_P1;HPM_P2
2022/04/15 00:01:40;;;;;;;17.57;13.93;;;;;;;;;;4935789;29;20190;-87
2022/04/15 00:04:44;;;;;;;19.33;13.47;;;;;;;;;;4935577;29;20238;-87
2022/04/15 00:07:49;;;;;;;15.97;13.73;;;;;;;;;;4935996;29;20199;-86
2022/04/15 00:10:53;;;;;;;17.50;14.43;;;;;;;;;;4957553;29;20681;-86
2022/04/15 00:13:58;;;;;;;17.13;13.93;;;;;;;;;;4946624;28;20226;-86
2022/04/15 00:17:02;;;;;;;19.37;14.67;;;;;;;;;;4946744;29;20182;-87
2022/04/15 00:20:07;;;;;;;18.27;14.30;;;;;;;;;;4957719;29;20559;-86
2022/04/15 00:23:11;;;;;;;17.40;14.50;;;;;;;;;;4935696;28;20194;-86
2022/04/15 00:26:15;;;;;;;17.00;14.17;;;;;;;;;;4946384;29;20231;-87
2022/04/15 00:29:19;;;;;;;18.97;15.13;;;;;;;;;;4935612;29;20191;-86
2022/04/15 00:32:23;;;;;;;17.73;15.40;;;;;;;;;;4935616;29;20199;-87
2022/04/15 00:35:28;;;;;;;19.77;16.43;;;;;;;;;;4935561;29;20191;-87
2022/04/15 00:38:32;;;;;;;17.70;15.77;;;;;;;;;;4946082;29;20225;-87
2022/04/15 00:41:36;;;;;;;18.63;16.13;;;;;;;;;;4935360;29;20210;-87
2022/04/15 00:44:41;;;;;;;18.70;16.47;;;;;;;;;;4956943;28;20226;-87
2022/04/15 00:47:59;;;;;;;23.47;16.60;;;;;;;;;;4945914;29;20211;-87
2022/04/15 00:51:05;;;;;;;18.83;16.80;;;;;;;;;;4946106;29;20214;-87
2022/04/15 00:54:11;;;;;;;18.47;16.10;;;;;;;;;;4945784;29;20230;-87
2022/04/15 00:57:22;;;;;;;18.70;16.70;;;;;;;;;;4946154;29;20190;-87
2022/04/15 01:00:29;;;;;;;18.67;16.10;;;;;;;;;;4949772;29;20191;-87
2022/04/15 01:03:35;;;;;;;18.93;16.47;;;;;;;;;;4948458;28;20233;-86
2022/04/15 01:06:39;;;;;;;18.47;16.23;;;;;;;;;;4948643;28;20705;-86
2022/04/15 01:09:44;;;;;;;20.47;18.27;;;;;;;;;;4948232;29;20190;-87
2022/04/15 01:12:56;;;;;;;23.83;19.03;;;;;;;;;;4936587;29;20190;-86
2022/04/15 01:16:00;;;;;;;23.03;19.03;;;;;;;;;;4936734;29;20202;-86
2022/04/15 01:19:04;;;;;;;19.00;17.07;;;;;;;;;;4948248;29;20187;-87
2022/04/15 01:22:14;;;;;;;22.80;19.53;;;;;;;;;;4937112;29;20190;-86
2022/04/15 01:25:18;;;;;;;23.37;19.07;;;;;;;;;;4937005;29;20250;-86
2022/04/15 01:28:22;;;;;;;23.00;18.63;;;;;;;;;;4947124;29;20222;-87
2022/04/15 01:31:29;;;;;;;23.70;18.53;;;;;;;;;;4958774;29;20252;-87
2022/04/15 01:34:34;;;;;;;20.90;18.70;;;;;;;;;;4936154;29;20222;-86
2022/04/15 01:37:39;;;;;;;20.30;17.37;;;;;;;;;;4957960;29;20647;-86
2022/04/15 01:40:44;;;;;;;21.10;17.27;;;;;;;;;;4936142;29;20543;-86
2022/04/15 01:43:49;;;;;;;21.10;17.57;;;;;;;;;;4935740;28;20230;-86
2022/04/15 01:46:53;;;;;;;23.67;18.63;;;;;;;;;;4935665;29;20230;-86
2022/04/15 01:49:57;;;;;;;23.40;19.30;;;;;;;;;;4935530;29;20574;-86
2022/04/15 01:53:02;;;;;;;20.03;17.90;;;;;;;;;;4946252;28;20214;-86
2022/04/15 01:56:06;;;;;;;20.97;18.67;;;;;;;;;;4968509;28;20190;-87
2022/04/15 01:59:10;;;;;;;20.00;18.00;;;;;;;;;;4946025;29;20186;-86
2022/04/15 02:02:15;;;;;;;21.60;18.73;;;;;;;;;;4945753;29;20183;-86
2022/04/15 02:05:19;;;;;;;22.50;20.10;;;;;;;;;;4967286;28;20594;-87
2022/04/15 02:08:23;;;;;;;23.37;19.07;;;;;;;;;;4934988;29;20198;-85
2022/04/15 02:11:27;;;;;;;20.67;18.33;;;;;;;;;;4934653;29;20210;-85
2022/04/15 02:14:31;;;;;;;24.50;18.93;;;;;;;;;;4934201;29;20226;-87
2022/04/15 02:17:36;;;;;;;21.87;18.33;;;;;;;;;;4945609;29;20187;-86
2022/04/15 02:20:40;;;;;;;23.10;19.97;;;;;;;;;;4934031;29;20186;-86
2022/04/15 02:23:44;;;;;;;24.60;19.80;;;;;;;;;;4934020;28;20229;-86
2022/04/15 02:26:48;;;;;;;22.80;18.83;;;;;;;;;;4945460;29;20226;-85
2022/04/15 02:29:52;;;;;;;22.07;19.73;;;;;;;;;;4934169;29;20186;-85
2022/04/15 02:32:57;;;;;;;20.93;18.70;;;;;;;;;;4934301;29;20187;-86
2022/04/15 02:36:01;;;;;;;20.30;17.77;;;;;;;;;;4945190;29;20191;-85
2022/04/15 02:39:10;;;;;;;22.80;19.13;;;;;;;;;;4934019;29;20186;-86
2022/04/15 02:42:14;;;;;;;22.77;17.73;;;;;;;;;;4944912;29;20183;-86
2022/04/15 02:45:19;;;;;;;22.57;19.43;;;;;;;;;;4933465;29;20218;-86
2022/04/15 02:48:22;;;;;;;23.13;19.13;;;;;;;;;;4933706;29;20187;-86
2022/04/15 02:51:27;;;;;;;22.90;19.13;;;;;;;;;;4956190;29;20194;-86
2022/04/15 02:54:31;;;;;;;23.17;18.90;;;;;;;;;;4944366;29;20226;-86
2022/04/15 02:57:35;;;;;;;24.10;19.20;;;;;;;;;;4944283;29;20182;-86
2022/04/15 03:00:39;;;;;;;20.70;18.33;;;;;;;;;;4944526;29;20578;-86
2022/04/15 03:03:43;;;;;;;22.27;18.47;;;;;;;;;;4955477;28;20234;-86
2022/04/15 03:06:47;;;;;;;22.40;18.70;;;;;;;;;;4933544;29;20230;-85
2022/04/15 03:09:52;;;;;;;25.57;19.50;;;;;;;;;;4933591;29;20190;-86
2022/04/15 03:12:56;;;;;;;22.60;18.63;;;;;;;;;;4933507;29;20184;-85
2022/04/15 03:16:00;;;;;;;23.83;19.43;;;;;;;;;;4944592;29;20578;-85
2022/04/15 03:19:04;;;;;;;24.33;19.20;;;;;;;;;;4934116;29;20562;-85
2022/04/15 03:22:08;;;;;;;22.97;18.10;;;;;;;;;;4934058;29;20639;-85
2022/04/15 03:25:17;;;;;;;21.40;17.80;;;;;;;;;;4933891;29;20226;-84
2022/04/15 03:28:21;;;;;;;22.20;19.57;;;;;;;;;;4944849;29;20194;-85
2022/04/15 03:31:25;;;;;;;26.43;19.47;;;;;;;;;;4947361;29;20566;-85
2022/04/15 03:34:30;;;;;;;22.43;19.70;;;;;;;;;;4937302;29;20218;-84
2022/04/15 03:37:34;;;;;;;22.30;19.47;;;;;;;;;;4948405;29;20199;-85
2022/04/15 03:40:38;;;;;;;22.00;18.67;;;;;;;;;;4937628;29;20191;-85
2022/04/15 03:43:42;;;;;;;21.83;18.53;;;;;;;;;;4948114;28;20238;-85
2022/04/15 03:46:46;;;;;;;22.50;19.37;;;;;;;;;;4948006;29;20654;-85
2022/04/15 03:49:50;;;;;;;20.50;17.97;;;;;;;;;;4937494;29;20195;-85
2022/04/15 03:52:55;;;;;;;22.27;18.57;;;;;;;;;;4948150;29;20256;-85
2022/04/15 03:55:59;;;;;;;21.47;18.00;;;;;;;;;;4948397;28;20210;-85
2022/04/15 03:59:03;;;;;;;21.70;18.87;;;;;;;;;;4937070;29;20191;-85
2022/04/15 04:02:07;;;;;;;23.93;18.37;;;;;;;;;;4936469;29;20190;-85
2022/04/15 04:05:13;;;;;;;20.87;18.40;;;;;;;;;;4937096;29;20234;-85
2022/04/15 04:08:16;;;;;;;24.03;18.47;;;;;;;;;;4959269;29;20187;-85
2022/04/15 04:11:21;;;;;;;22.37;19.37;;;;;;;;;;4947849;29;20187;-85
2022/04/15 04:14:25;;;;;;;24.10;20.50;;;;;;;;;;4958723;28;20242;-87
2022/04/15 04:17:30;;;;;;;27.80;19.13;;;;;;;;;;4937446;29;20218;-86
2022/04/15 04:20:33;;;;;;;24.70;19.93;;;;;;;;;;4948286;29;20547;-87
2022/04/15 04:23:38;;;;;;;25.27;20.07;;;;;;;;;;4971608;28;20234;-85
2022/04/15 04:26:42;;;;;;;22.83;20.20;;;;;;;;;;4954229;29;20198;-87
2022/04/15 04:29:46;;;;;;;22.73;18.77;;;;;;;;;;4953852;29;20650;-87
2022/04/15 04:32:51;;;;;;;22.93;19.97;;;;;;;;;;4951404;29;20195;-87
2022/04/15 04:35:56;;;;;;;22.10;18.80;;;;;;;;;;4940618;29;20647;-86
2022/04/15 04:39:00;;;;;;;23.47;18.37;;;;;;;;;;4939674;29;20195;-87
2022/04/15 04:42:06;;;;;;;22.17;19.13;;;;;;;;;;4938069;29;20547;-87
2022/04/15 04:45:11;;;;;;;27.03;19.57;;;;;;;;;;4960816;28;20230;-86
2022/04/15 04:48:15;;;;;;;23.90;17.83;;;;;;;;;;4972467;28;20184;-86
2022/04/15 04:51:19;;;;;;;27.97;19.23;;;;;;;;;;4938368;29;20186;-86
2022/04/15 04:54:23;;;;;;;21.63;19.20;;;;;;;;;;4938681;29;20230;-86
2022/04/15 04:57:27;;;;;;;22.97;20.03;;;;;;;;;;4949651;29;20219;-86
2022/04/15 05:00:31;;;;;;;24.87;20.20;;;;;;;;;;4946724;29;20190;-89
2022/04/15 05:03:36;;;;;;;24.03;19.60;;;;;;;;;;4945619;28;20286;-88
2022/04/15 05:06:40;;;;;;;25.23;20.80;;;;;;;;;;4935464;29;20263;-88
2022/04/15 05:09:44;;;;;;;28.47;21.83;;;;;;;;;;4935026;29;20191;-88
2022/04/15 05:12:48;;;;;;;28.27;22.07;;;;;;;;;;4935085;29;20202;-88
2022/04/15 05:15:52;;;;;;;26.80;21.70;;;;;;;;;;4934581;29;20183;-88
2022/04/15 05:18:56;;;;;;;25.17;21.27;;;;;;;;;;4935046;29;20190;-88
2022/04/15 05:22:01;;;;;;;26.17;21.20;;;;;;;;;;4956571;29;20194;-88
2022/04/15 05:25:05;;;;;;;28.10;21.67;;;;;;;;;;4934247;29;20222;-87
2022/04/15 05:28:10;;;;;;;27.00;21.83;;;;;;;;;;4945434;29;20539;-85
2022/04/15 05:31:14;;;;;;;36.67;25.97;;;;;;;;;;4947061;29;20187;-85
2022/04/15 05:34:18;;;;;;;49.43;34.30;;;;;;;;;;4965338;28;20281;-86
2022/04/15 05:37:23;;;;;;;32.17;24.73;;;;;;;;;;4945434;29;20733;-86
2022/04/15 05:40:28;;;;;;;37.83;28.10;;;;;;;;;;4973261;28;20206;-86
2022/04/15 05:43:32;;;;;;;35.13;26.73;;;;;;;;;;4975751;28;20233;-85
2022/04/15 05:46:37;;;;;;;35.43;27.43;;;;;;;;;;4953005;28;20214;-86
2022/04/15 05:49:41;;;;;;;34.30;26.03;;;;;;;;;;4953939;28;20573;-86
2022/04/15 05:52:46;;;;;;;32.73;25.73;;;;;;;;;;4952621;28;20194;-86
2022/04/15 05:55:50;;;;;;;35.27;26.57;;;;;;;;;;4937730;29;20210;-86
2022/04/15 05:58:54;;;;;;;34.00;24.57;;;;;;;;;;4971596;28;20194;-85
2022/04/15 06:01:58;;;;;;;30.27;24.93;;;;;;;;;;4947501;28;20677;-85
2022/04/15 06:05:03;;;;;;;29.90;24.37;;;;;;;;;;4950388;28;20246;-86
2022/04/15 06:08:07;;;;;;;27.77;22.10;;;;;;;;;;4971498;28;21419;-84
2022/04/15 06:11:11;;;;;;;30.43;22.67;;;;;;;;;;4964044;28;20566;-86
2022/04/15 06:14:17;;;;;;;27.43;22.63;;;;;;;;;;4953442;28;20712;-86
2022/04/15 06:17:22;;;;;;;25.70;21.10;;;;;;;;;;4952943;28;20210;-85
2022/04/15 06:20:27;;;;;;;25.03;19.83;;;;;;;;;;4976600;28;20664;-86
2022/04/15 06:23:32;;;;;;;26.87;21.33;;;;;;;;;;4965508;28;20222;-89
2022/04/15 06:26:36;;;;;;;26.63;21.80;;;;;;;;;;4964625;28;20554;-86
2022/04/15 06:29:40;;;;;;;29.97;21.83;;;;;;;;;;4968391;28;20206;-86
2022/04/15 06:32:44;;;;;;;27.97;22.53;;;;;;;;;;4947834;28;20193;-85
2022/04/15 06:35:51;;;;;;;28.63;22.27;;;;;;;;;;4973954;28;20197;-87
2022/04/15 06:38:55;;;;;;;30.83;21.97;;;;;;;;;;4961930;28;20249;-89
2022/04/15 06:41:59;;;;;;;28.83;22.53;;;;;;;;;;4951892;28;20194;-88
2022/04/15 06:45:03;;;;;;;30.30;23.43;;;;;;;;;;4974022;28;20233;-87
2022/04/15 06:48:07;;;;;;;27.97;21.90;;;;;;;;;;4951946;28;20666;-86
2022/04/15 06:51:11;;;;;;;27.97;22.77;;;;;;;;;;4952255;28;20225;-87
2022/04/15 06:54:15;;;;;;;28.83;23.63;;;;;;;;;;4949856;28;20225;-88
2022/04/15 06:57:20;;;;;;;32.00;24.40;;;;;;;;;;4962661;28;20233;-87
2022/04/15 07:00:24;;;;;;;27.63;22.67;;;;;;;;;;4951982;28;20206;-88
2022/04/15 07:03:28;;;;;;;28.23;23.27;;;;;;;;;;4969563;28;20314;-87
2022/04/15 07:06:32;;;;;;;31.23;23.50;;;;;;;;;;4991879;23;20240;-86
2022/04/15 07:09:36;;;;;;;28.10;23.23;;;;;;;;;;4971051;28;20193;-87
2022/04/15 07:12:40;;;;;;;30.73;23.47;;;;;;;;;;4970937;28;20204;-87
2022/04/15 07:15:44;;;;;;;27.13;22.73;;;;;;;;;;4971462;28;20229;-87
2022/04/15 07:18:48;;;;;;;26.70;23.30;;;;;;;;;;4944141;28;20222;-85
2022/04/15 07:21:53;;;;;;;29.50;23.80;;;;;;;;;;4952194;28;20190;-86
2022/04/15 07:24:57;;;;;;;28.43;22.30;;;;;;;;;;4962719;28;20585;-86
2022/04/15 07:28:01;;;;;;;28.70;22.63;;;;;;;;;;4951796;28;20190;-86
2022/04/15 07:31:05;;;;;;;29.00;23.03;;;;;;;;;;4951604;28;20186;-86
2022/04/15 07:34:09;;;;;;;27.33;22.27;;;;;;;;;;4938249;29;20202;-87
2022/04/15 07:37:14;;;;;;;26.87;22.87;;;;;;;;;;4932490;29;20218;-86
2022/04/15 07:40:18;;;;;;;26.67;21.67;;;;;;;;;;4943896;29;20210;-87
2022/04/15 07:43:21;;;;;;;26.53;22.83;;;;;;;;;;4943256;29;20685;-87
2022/04/15 07:46:26;;;;;;;24.60;20.30;;;;;;;;;;4945319;29;20288;-87
2022/04/15 07:49:30;;;;;;;26.27;21.53;;;;;;;;;;4943423;29;20202;-87
2022/04/15 07:52:35;;;;;;;25.53;21.10;;;;;;;;;;4932565;29;20190;-87
2022/04/15 07:55:39;;;;;;;24.63;20.73;;;;;;;;;;4943015;29;20238;-86
2022/04/15 07:58:44;;;;;;;22.97;19.17;;;;;;;;;;4959800;28;20717;-87
2022/04/15 08:01:48;;;;;;;22.60;18.87;;;;;;;;;;4957334;28;20681;-87
2022/04/15 08:04:52;;;;;;;20.27;16.73;;;;;;;;;;4954811;28;20713;-87
2022/04/15 08:07:56;;;;;;;19.07;16.43;;;;;;;;;;4954189;29;20187;-87
2022/04/15 08:11:01;;;;;;;17.83;13.90;;;;;;;;;;4943387;29;20186;-85
2022/04/15 08:14:05;;;;;;;21.07;16.00;;;;;;;;;;4952493;29;20190;-87
2022/04/15 08:17:09;;;;;;;20.40;15.63;;;;;;;;;;4951367;28;20198;-86
2022/04/15 08:20:16;;;;;;;14.93;13.33;;;;;;;;;;4954473;28;20206;-87
2022/04/15 08:23:21;;;;;;;16.00;12.97;;;;;;;;;;4965709;28;20209;-86
2022/04/15 08:26:25;;;;;;;15.37;12.60;;;;;;;;;;4965441;28;20217;-87
2022/04/15 08:29:29;;;;;;;16.20;12.60;;;;;;;;;;4965763;28;20182;-85
2022/04/15 08:32:33;;;;;;;15.93;12.97;;;;;;;;;;4965067;28;20206;-86
2022/04/15 08:35:39;;;;;;;15.53;12.80;;;;;;;;;;4950902;28;20229;-86
2022/04/15 08:38:43;;;;;;;23.87;12.93;;;;;;;;;;4965070;28;20225;-86
2022/04/15 08:41:47;;;;;;;13.50;11.00;;;;;;;;;;4966215;28;20185;-85
2022/04/15 08:44:52;;;;;;;13.47;10.33;;;;;;;;;;4954467;28;20712;-86
2022/04/15 08:48:01;;;;;;;13.60;8.90;;;;;;;;;;4965596;28;20205;-85
2022/04/15 08:51:06;;;;;;;11.00;8.97;;;;;;;;;;4976518;28;20191;-86
2022/04/15 08:54:12;;;;;;;11.70;9.00;;;;;;;;;;4938525;28;20583;-86
2022/04/15 08:57:16;;;;;;;10.10;9.10;;;;;;;;;;4976010;28;20214;-88
2022/04/15 09:00:22;;;;;;;12.60;9.47;;;;;;;;;;4965170;28;20187;-87
2022/04/15 09:03:26;;;;;;;13.90;10.40;;;;;;;;;;4954093;28;20270;-87
2022/04/15 09:06:31;;;;;;;13.50;10.10;;;;;;;;;;4964939;28;20233;-86
2022/04/15 09:09:35;;;;;;;12.13;10.80;;;;;;;;;;4964515;28;20199;-86
2022/04/15 09:12:40;;;;;;;12.93;9.77;;;;;;;;;;4965221;28;20190;-89
2022/04/15 09:15:44;;;;;;;12.97;10.03;;;;;;;;;;4975481;28;20232;-89
2022/04/15 09:18:49;;;;;;;12.07;10.77;;;;;;;;;;4953800;28;20700;-88
2022/04/15 09:21:57;;;;;;;13.00;9.30;;;;;;;;;;4953899;28;20190;-88
2022/04/15 09:25:02;;;;;;;12.20;9.93;;;;;;;;;;4986976;28;20222;-88
2022/04/15 09:28:06;;;;;;;13.00;9.97;;;;;;;;;;4964160;28;20185;-88
2022/04/15 09:31:13;;;;;;;10.63;9.50;;;;;;;;;;4964290;28;20351;-88
2022/04/15 09:34:17;;;;;;;12.97;10.57;;;;;;;;;;4975613;28;20191;-88
2022/04/15 09:37:39;;;;;;;11.40;10.20;;;;;;;;;;4964296;28;20192;-88
2022/04/15 09:40:43;;;;;;;11.57;9.93;;;;;;;;;;4964080;28;20192;-90
2022/04/15 09:43:52;;;;;;;11.77;9.27;;;;;;;;;;4952924;28;20204;-89
2022/04/15 09:46:56;;;;;;;11.10;9.47;;;;;;;;;;4961658;28;20201;-89
2022/04/15 09:50:03;;;;;;;10.33;9.33;;;;;;;;;;4975236;28;20211;-89
2022/04/15 09:53:14;;;;;;;10.57;9.17;;;;;;;;;;4975269;28;20190;-89
2022/04/15 09:56:21;;;;;;;10.93;9.07;;;;;;;;;;4974495;28;20225;-89
2022/04/15 09:59:29;;;;;;;11.20;7.80;;;;;;;;;;4952914;28;20220;-89
2022/04/15 10:02:36;;;;;;;7.97;7.17;;;;;;;;;;4964119;28;20188;-89
2022/04/15 10:05:41;;;;;;;9.60;6.83;;;;;;;;;;4967844;28;20239;-89
2022/04/15 10:08:46;;;;;;;9.47;7.40;;;;;;;;;;4963772;28;20189;-88
2022/04/15 10:11:50;;;;;;;7.87;5.80;;;;;;;;;;4963598;28;20196;-89
2022/04/15 10:14:54;;;;;;;9.25;6.65;;;;;;;;;;4985559;28;20225;-89
2022/04/15 10:18:01;;;;;;;8.90;7.35;;;;;;;;;;4952803;28;20212;-89
2022/04/15 10:21:07;;;;;;;7.80;7.00;;;;;;;;;;4963455;28;20192;-89
2022/04/15 10:24:12;;;;;;;15.40;7.68;;;;;;;;;;4963717;28;20180;-89
2022/04/15 10:27:30;;;;;;;9.27;6.95;;;;;;;;;;4963247;28;20665;-89
2022/04/15 10:30:34;;;;;;;8.48;6.15;;;;;;;;;;4933374;29;20187;-90
2022/04/15 10:33:40;;;;;;;8.32;6.22;;;;;;;;;;4944868;29;20189;-86
2022/04/15 10:36:46;;;;;;;10.37;7.07;;;;;;;;;;4951989;28;20693;-86
2022/04/15 10:39:51;;;;;;;7.00;6.30;;;;;;;;;;4951476;28;20229;-86
2022/04/15 10:43:21;;;;;;;8.63;6.50;;;;;;;;;;4974443;28;20528;-86
2022/04/15 10:46:29;;;;;;;7.93;6.80;;;;;;;;;;4963390;28;20216;-86
2022/04/15 10:49:34;;;;;;;8.07;6.50;;;;;;;;;;4952010;28;20546;-85
2022/04/15 10:52:39;;;;;;;8.07;6.87;;;;;;;;;;4974329;28;20186;-86
2022/04/15 10:55:49;;;;;;;10.10;7.23;;;;;;;;;;4963114;28;20570;-86
2022/04/15 11:02:16;;;;;;;8.10;7.10;;;;;;;;;;4975126;28;20189;-86
2022/04/15 11:05:53;;;;;;;8.37;6.80;;;;;;;;;;4951854;28;20232;-86
2022/04/15 11:09:13;;;;;;;8.20;6.40;;;;;;;;;;4974661;28;20175;-86
2022/04/15 11:12:42;;;;;;;7.80;6.10;;;;;;;;;;4963242;28;20188;-86
2022/04/15 11:16:00;;;;;;;6.80;5.67;;;;;;;;;;4974112;28;20214;-86
2022/04/15 11:19:05;;;;;;;8.40;5.70;;;;;;;;;;4963570;28;20210;-86
2022/04/15 11:22:09;;;;;;;6.50;5.30;;;;;;;;;;4952094;28;20179;-86
2022/04/15 11:25:14;;;;;;;9.03;5.30;;;;;;;;;;4963779;28;20218;-83
2022/04/15 11:28:19;;;;;;;6.53;5.60;;;;;;;;;;4974658;28;20199;-83
2022/04/15 11:31:34;;;;;;;7.50;5.80;;;;;;;;;;4974826;28;20199;-82
2022/04/15 11:34:37;;;;;;;6.60;5.73;;;;;;;;;;4974913;28;20181;-83
2022/04/15 11:37:43;;;;;;;6.60;5.87;;;;;;;;;;4974716;28;20664;-83
2022/04/15 11:40:48;;;;;;;8.40;6.67;;;;;;;;;;4963847;28;20666;-83
2022/04/15 11:43:59;;;;;;;6.80;5.73;;;;;;;;;;4974949;28;20176;-83
2022/04/15 11:47:25;;;;;;;10.17;5.23;;;;;;;;;;4953779;28;20194;-83
2022/04/15 11:50:29;;;;;;;7.13;5.83;;;;;;;;;;4952534;28;20191;-83
2022/04/15 11:53:33;;;;;;;8.00;6.13;;;;;;;;;;4955771;28;20511;-83
2022/04/15 11:56:38;;;;;;;7.03;4.97;;;;;;;;;;4955148;28;20218;-83
2022/04/15 11:59:45;;;;;;;5.97;4.67;;;;;;;;;;4955216;28;20681;-83
2022/04/15 12:02:48;;;;;;;7.67;4.90;;;;;;;;;;4977507;28;20188;-83
2022/04/15 12:05:54;;;;;;;7.33;4.70;;;;;;;;;;4977567;28;20218;-83
2022/04/15 12:09:00;;;;;;;5.13;4.27;;;;;;;;;;4966596;28;20292;-83
2022/04/15 12:12:05;;;;;;;5.00;4.50;;;;;;;;;;4955672;28;20180;-83
2022/04/15 12:15:12;;;;;;;5.37;4.40;;;;;;;;;;4955389;28;20551;-83
2022/04/15 12:18:16;;;;;;;4.80;4.23;;;;;;;;;;4977603;28;20199;-83
2022/04/15 12:21:20;;;;;;;4.40;3.70;;;;;;;;;;4966355;28;20534;-82
2022/04/15 12:24:24;;;;;;;5.37;3.67;;;;;;;;;;4955457;28;20206;-82
2022/04/15 12:27:37;;;;;;;5.40;3.63;;;;;;;;;;4977651;28;20519;-82
2022/04/15 12:30:43;;;;;;;4.93;3.97;;;;;;;;;;4977249;28;20175;-82
2022/04/15 12:33:47;;;;;;;5.33;3.60;;;;;;;;;;4977429;28;20523;-83
2022/04/15 12:36:51;;;;;;;5.10;3.60;;;;;;;;;;4965898;28;20218;-82
2022/04/15 12:39:55;;;;;;;4.63;3.93;;;;;;;;;;4955573;28;20215;-83
2022/04/15 12:43:11;;;;;;;6.70;4.30;;;;;;;;;;4955407;28;20191;-83
2022/04/15 12:46:17;;;;;;;5.43;3.90;;;;;;;;;;4977255;28;20220;-83
2022/04/15 12:49:33;;;;;;;4.43;3.50;;;;;;;;;;4977415;28;20176;-83
2022/04/15 12:52:41;;;;;;;4.00;3.20;;;;;;;;;;4955451;28;20186;-83
2022/04/15 12:55:47;;;;;;;3.37;2.63;;;;;;;;;;4977435;28;20217;-82
2022/04/15 12:58:53;;;;;;;4.43;2.73;;;;;;;;;;4955255;28;20214;-83
2022/04/15 13:01:57;;;;;;;2.83;2.37;;;;;;;;;;4978233;28;20520;-83
2022/04/15 13:05:08;;;;;;;4.37;2.60;;;;;;;;;;4991191;23;20577;-89
2022/04/15 13:08:16;;;;;;;4.30;2.97;;;;;;;;;;4973105;28;20180;-87
2022/04/15 13:11:26;;;;;;;5.73;3.40;;;;;;;;;;4984313;28;20181;-86
2022/04/15 13:14:33;;;;;;;3.73;3.07;;;;;;;;;;4973838;28;20536;-86
2022/04/15 13:17:41;;;;;;;5.23;3.13;;;;;;;;;;4965768;28;20184;-86
2022/04/15 13:21:05;;;;;;;3.50;3.10;;;;;;;;;;4976596;28;20173;-86
2022/04/15 13:24:09;;;;;;;4.57;2.70;;;;;;;;;;4965439;28;20203;-86
2022/04/15 13:27:22;;;;;;;4.17;2.80;;;;;;;;;;4977520;28;20213;-86
2022/04/15 13:30:26;;;;;;;5.53;2.77;;;;;;;;;;4964489;28;20183;-87
2022/04/15 13:33:32;;;;;;;5.50;2.77;;;;;;;;;;4953497;28;20186;-86
2022/04/15 13:36:36;;;;;;;3.67;2.60;;;;;;;;;;4953179;28;20229;-86
2022/04/15 13:39:41;;;;;;;3.53;2.90;;;;;;;;;;4964126;28;20654;-86
2022/04/15 13:42:45;;;;;;;3.07;2.77;;;;;;;;;;4953224;28;20559;-86
2022/04/15 13:45:49;;;;;;;5.27;3.67;;;;;;;;;;4964065;28;20218;-86
2022/04/15 13:48:56;;;;;;;4.40;2.83;;;;;;;;;;4953554;28;20548;-86
2022/04/15 13:52:01;;;;;;;4.83;3.13;;;;;;;;;;4953636;28;20192;-86
2022/04/15 13:58:28;;;;;;;2.90;2.60;;;;;;;;;;4975505;28;20628;-86
2022/04/15 14:01:33;;;;;;;4.53;3.20;;;;;;;;;;4964142;28;20183;-86
2022/04/15 14:04:37;;;;;;;7.10;2.43;;;;;;;;;;4953477;28;20185;-86
2022/04/15 14:07:42;;;;;;;3.43;2.47;;;;;;;;;;4952951;28;20180;-86
2022/04/15 14:10:46;;;;;;;4.60;2.50;;;;;;;;;;4963742;28;20208;-87
2022/04/15 14:13:50;;;;;;;3.00;2.53;;;;;;;;;;4952858;28;20627;-86
2022/04/15 14:16:54;;;;;;;3.13;2.20;;;;;;;;;;4963864;28;20218;-86
2022/04/15 14:19:59;;;;;;;2.27;2.03;;;;;;;;;;4952679;28;20180;-86
2022/04/15 14:23:03;;;;;;;4.20;3.00;;;;;;;;;;4952664;28;20190;-86
2022/04/15 14:26:07;;;;;;;2.90;1.87;;;;;;;;;;4963801;28;20217;-86
2022/04/15 14:29:12;;;;;;;3.43;2.27;;;;;;;;;;4963607;28;20209;-86
2022/04/15 14:32:16;;;;;;;12.20;2.80;;;;;;;;;;4963680;28;20188;-86
2022/04/15 14:35:20;;;;;;;2.53;2.33;;;;;;;;;;4952453;28;20220;-86
2022/04/15 14:38:24;;;;;;;3.67;2.40;;;;;;;;;;4952291;28;20194;-86
2022/04/15 14:41:29;;;;;;;2.50;2.03;;;;;;;;;;4963430;28;20183;-86
2022/04/15 14:44:33;;;;;;;2.30;2.00;;;;;;;;;;4963282;28;20179;-86
2022/04/15 14:47:37;;;;;;;4.97;2.87;;;;;;;;;;4974352;28;20182;-86
2022/04/15 14:50:42;;;;;;;4.73;2.90;;;;;;;;;;4963349;28;20236;-86
2022/04/15 14:53:46;;;;;;;4.13;2.80;;;;;;;;;;4963229;28;20658;-86
2022/04/15 14:56:50;;;;;;;3.37;2.90;;;;;;;;;;4952400;28;20218;-86
2022/04/15 14:59:54;;;;;;;3.53;2.90;;;;;;;;;;4952321;28;20182;-86
2022/04/15 15:03:01;;;;;;;5.80;2.90;;;;;;;;;;4962842;28;20175;-86
2022/04/15 15:06:13;;;;;;;5.07;2.93;;;;;;;;;;4977855;23;20238;-86
2022/04/15 15:09:18;;;;;;;5.30;3.50;;;;;;;;;;4971282;28;20182;-86
2022/04/15 15:12:22;;;;;;;4.30;3.20;;;;;;;;;;4982015;28;20198;-86
2022/04/15 15:15:26;;;;;;;3.70;3.30;;;;;;;;;;4976406;28;20218;-86
2022/04/15 15:18:31;;;;;;;5.50;4.57;;;;;;;;;;4985745;22;20225;-88
2022/04/15 15:21:36;;;;;;;4.30;3.90;;;;;;;;;;5021389;28;20177;-88
2022/04/15 15:31:26;;;;;;;3.10;2.57;;;;;;;;;;4998276;28;20210;-87
2022/04/15 15:34:30;;;;;;;2.90;2.60;;;;;;;;;;4992204;28;20189;-87
2022/04/15 15:37:35;;;;;;;4.00;2.67;;;;;;;;;;5017209;28;20181;-87
2022/04/15 15:40:44;;;;;;;5.07;3.73;;;;;;;;;;4994925;28;20181;-87
2022/04/15 15:43:48;;;;;;;8.63;7.73;;;;;;;;;;4987655;28;20190;-87
2022/04/15 15:46:52;;;;;;;10.83;9.57;;;;;;;;;;4975053;28;20186;-87
2022/04/15 15:49:56;;;;;;;11.03;7.70;;;;;;;;;;4994588;28;20232;-87
2022/04/15 15:53:01;;;;;;;8.17;7.30;;;;;;;;;;4994306;28;20197;-86
2022/04/15 15:56:05;;;;;;;6.17;4.43;;;;;;;;;;4993637;28;20193;-87
2022/04/15 15:59:09;;;;;;;6.30;3.90;;;;;;;;;;4984846;28;20229;-87
2022/04/15 16:02:13;;;;;;;5.00;4.50;;;;;;;;;;4996740;28;20182;-87
2022/04/15 16:05:18;;;;;;;3.10;2.80;;;;;;;;;;4983831;28;20529;-87
2022/04/15 16:08:22;;;;;;;5.20;3.70;;;;;;;;;;5004465;28;20213;-87
2022/04/15 16:11:26;;;;;;;4.73;2.50;;;;;;;;;;4993783;28;20213;-87
2022/04/15 16:14:30;;;;;;;4.23;2.60;;;;;;;;;;5004603;28;21430;-87
2022/04/15 16:17:34;;;;;;;4.50;2.63;;;;;;;;;;5004730;28;20201;-87
2022/04/15 16:20:38;;;;;;;4.53;2.17;;;;;;;;;;5015745;28;20197;-87
2022/04/15 16:23:42;;;;;;;2.87;2.10;;;;;;;;;;5004311;28;20185;-86
2022/04/15 16:26:46;;;;;;;3.50;2.20;;;;;;;;;;5004799;28;20178;-87
2022/04/15 16:29:51;;;;;;;2.40;1.87;;;;;;;;;;5004577;28;20229;-87
2022/04/15 16:32:55;;;;;;;2.57;1.67;;;;;;;;;;5004696;28;20181;-87
2022/04/15 16:35:59;;;;;;;2.90;1.90;;;;;;;;;;5003442;28;20178;-86
2022/04/15 16:39:03;;;;;;;3.47;2.20;;;;;;;;;;4987319;28;20217;-87
2022/04/15 16:42:08;;;;;;;2.47;2.20;;;;;;;;;;5015694;28;20501;-89
2022/04/15 16:45:13;;;;;;;2.90;2.20;;;;;;;;;;4994674;28;20185;-88
2022/04/15 16:48:17;;;;;;;2.27;1.93;;;;;;;;;;4991227;28;20197;-89
2022/04/15 16:51:21;;;;;;;6.13;3.10;;;;;;;;;;4993875;28;20213;-87
2022/04/15 16:58:37;;;;;;;3.77;2.40;;;;;;;;;;5005257;28;20533;-87
2022/04/15 17:01:18;;;;;;;3.23;2.40;;;;;;;;;;5016290;28;20182;-86
2022/04/15 17:04:23;;;;;;;4.53;2.60;;;;;;;;;;5005754;28;20185;-87
2022/04/15 17:07:27;;;;;;;4.17;2.33;;;;;;;;;;4993365;28;20181;-87
2022/04/15 17:10:30;;;;;;;2.30;2.10;;;;;;;;;;4985147;28;20553;-87
2022/04/15 17:13:37;;;;;;;2.90;1.60;;;;;;;;;;4975103;28;20182;-86
2022/04/15 17:16:41;;;;;;;2.93;1.70;;;;;;;;;;4973874;28;20178;-87
2022/04/15 17:19:46;;;;;;;2.43;1.70;;;;;;;;;;5000475;28;20581;-85
2022/04/15 17:22:50;;;;;;;5.13;1.50;;;;;;;;;;4986567;28;20649;-85
2022/04/15 17:25:55;;;;;;;3.20;1.93;;;;;;;;;;5015704;28;20185;-86
2022/04/15 17:28:59;;;;;;;3.77;1.80;;;;;;;;;;5003943;28;20213;-86
2022/04/15 17:32:03;;;;;;;8.07;4.90;;;;;;;;;;5003994;28;20220;-85
2022/04/15 17:35:08;;;;;;;3.93;1.87;;;;;;;;;;4984014;28;20206;-85
2022/04/15 17:38:14;;;;;;;2.43;1.57;;;;;;;;;;4987163;28;20193;-86
2022/04/15 17:41:18;;;;;;;2.40;1.30;;;;;;;;;;4992713;28;20182;-86
2022/04/15 17:44:22;;;;;;;4.30;2.07;;;;;;;;;;5002567;28;20644;-85
2022/04/15 17:47:27;;;;;;;3.23;2.00;;;;;;;;;;5002717;28;20189;-86
2022/04/15 17:50:31;;;;;;;4.57;1.43;;;;;;;;;;4994452;28;20217;-86
2022/04/15 17:53:36;;;;;;;3.83;2.50;;;;;;;;;;4984085;28;20177;-86
2022/04/15 17:56:40;;;;;;;4.13;2.40;;;;;;;;;;4988274;28;20188;-86
2022/04/15 17:59:44;;;;;;;3.47;2.07;;;;;;;;;;4992650;28;20217;-86
2022/04/15 18:02:50;;;;;;;3.40;2.07;;;;;;;;;;4999143;28;20197;-85
2022/04/15 18:05:54;;;;;;;4.90;3.23;;;;;;;;;;5003553;28;20197;-85
2022/04/15 18:08:59;;;;;;;6.43;3.63;;;;;;;;;;5003548;28;20213;-85
2022/04/15 18:12:05;;;;;;;3.97;2.33;;;;;;;;;;5003428;28;20225;-85
2022/04/15 18:15:09;;;;;;;2.27;1.23;;;;;;;;;;4994454;28;20194;-85
2022/04/15 18:18:13;;;;;;;11.50;6.87;;;;;;;;;;5005257;28;20201;-85
2022/04/15 18:21:20;;;;;;;73.57;41.47;;;;;;;;;;5002729;28;20200;-85
2022/04/15 18:24:27;;;;;;;4.87;3.27;;;;;;;;;;4991567;28;20223;-85
2022/04/15 18:27:31;;;;;;;8.43;3.70;;;;;;;;;;4990187;28;20550;-85
2022/04/15 18:30:37;;;;;;;5.43;3.70;;;;;;;;;;5002528;28;20228;-85